Nearby METAR Reports

METAR is the scheduled surface weather observation taken hourly at civil and military airport locations.

METAR is an acronym from the French language and roughly translates as Aviation Routine Weather Report.

 

EGPL - Benbecula Island, United Kingdom
Distance from station: WNW 41mi, 66km
Updated: 22/09/2018 08:20
Nearby showers, Few clouds
Nearby showers, Few clouds
 Wind from WNW
Wind: WNW 21 mph , 33 km/h
Temperature: 10°C
Wind Chill: 6°C
Dew Point: 6°C
Humidity: 76%
Barometer: 1011 hPa
Summary: Nearby Showers
Clouds: Few Clouds
Visibility: 6 miles , 10 km
Cloud details: Few Clouds 549 m
2018/09/22 07:20 EGPL 220720Z 30018KT 9999 VCSH FEW018 10/06 Q1011
EGPU - Tiree Island, United Kingdom
Distance from station: SSW 56mi, 90km
Updated: 22/09/2018 07:50
Few Clouds
Few Clouds
 Wind from WNW
Wind: WNW 17 mph , 28 km/h
Temperature: 9°C
Wind Chill: 6°C
Dew Point: 4°C
Humidity: 71%
Barometer: 1012 hPa
Clouds: Few Clouds
Visibility: 6 miles , 10 km
Cloud details: Few Clouds 1006 m
2018/09/22 06:50 EGPU 220650Z AUTO 29015KT 9999 FEW033/// 09/04 Q1012 RERA
 
EGEO - Oban Airport, United Kingdom
Distance from station: SE 65mi, 105km
Updated: 22/09/2018 08:20
Nearby showers, Partly cloudy
Nearby showers, Partly cloudy
 Wind from W
Wind: W 18 mph , 30 km/h
Temperature: 10°C
Wind Chill: 7°C
Dew Point: 6°C
Humidity: 76%
Barometer: 1012 hPa
Summary: Nearby Showers
Clouds: Partly cloudy
Visibility: 6 miles , 10 km
Cloud details: Few Clouds 823 m
Partly cloudy 945 m
2018/09/22 07:20 EGEO 220720Z 28016KT 9999 VCSH FEW027 SCT031CB 10/06 Q1012
EGPO - Stornoway, United Kingdom
Distance from station: 0 66mi, 106km
Updated: 22/09/2018 08:20
Light rain, Showers, Partly cloudy
Light rain, Showers, Partly cloudy
 Wind from WNW
Wind: WNW 16 mph , 26 km/h
Temperature: 8°C
Wind Chill: 4°C
Dew Point: 7°C
Humidity: 93%
Barometer: 1008 hPa
Summary: Light rain, Showers
Clouds: Partly cloudy
Visibility: 6 miles , 10 km
Cloud details: Partly cloudy 457 m
Partly cloudy 549 m
2018/09/22 07:20 EGPO 220720Z 29014KT 9999 -SHRA SCT015CB SCT018 08/07 Q1008
 
EGPE - Inverness/Dalcro, United Kingdom
Distance from station: ENE 88mi, 141km
Updated: 22/09/2018 08:20
Mostly cloudy
Mostly cloudy
 Wind from WSW
Wind: WSW 22 mph , 35 km/h
Temperature: 9°C
Wind Chill: 5°C
Dew Point: 6°C
Humidity: 82%
Barometer: 1008 hPa
Clouds: Mostly cloudy
Visibility: 6 miles , 10 km
Cloud details: Few Clouds 610 m
Partly cloudy 792 m
Mostly cloudy 1067 m
2018/09/22 07:20 EGPE 220720Z 25019KT 9999 FEW020 SCT026 BKN035 09/06 Q1008
EGQA - Tain Range (saws, United Kingdom
Distance from station: ENE 97mi, 156km
Updated: 21/09/2018 12:50
NOT Current
Rain showers, Partly cloudy
Rain showers, Partly cloudy
 Wind from WNW
Wind: WNW 22 mph , 35 km/h
Summary: Rain Showers
Clouds: Partly cloudy
Visibility: 6 miles , 10 km
Cloud details: Few Clouds 366 m
Partly cloudy 610 m
2018/09/21 11:50 EGQA 211150Z 30019KT 9999 SHRA FEW012 SCT020 10/// Q0997 WHT
 
EGQK - Kinloss Raf, United Kingdom
Distance from station: ENE 107mi, 171km
Updated: 22/09/2018 06:50
NOT Current
Mostly cloudy
Mostly cloudy
 Wind from WSW
Wind: WSW 20 mph , 31 km/h
Temperature: 9°C
Wind Chill: 5°C
Dew Point: 4°C
Humidity: 71%
Barometer: 1006 hPa
Clouds: Mostly cloudy
Visibility: 6 miles , 10 km
Cloud details: Mostly cloudy 1402 m
2018/09/22 05:50 EGQK 220550Z AUTO 24017KT 9999 BKN046/// 09/04 Q1006
EGPI - Islay/Port Ellen, United Kingdom
Distance from station: S 110mi, 177km
Updated: 22/09/2018 08:20
Few Clouds
Few Clouds
 Wind from WNW
Wind: WNW 17 mph , 28 km/h
Temperature: 10°C
Wind Chill: 7°C
Dew Point: 5°C
Humidity: 71%
Barometer: 1014 hPa
Clouds: Few Clouds
Visibility: 6 miles , 10 km
Cloud details: Few Clouds 732 m
2018/09/22 07:20 EGPI 220720Z 30015KT 9999 FEW024 10/05 Q1014
 
EGQS - Lossiemouth Raf, United Kingdom
Distance from station: ENE 117mi, 188km
Updated: 22/09/2018 07:50
Mostly cloudy
Mostly cloudy
 Wind from W
Wind: W 23 mph , 37 km/h
Temperature: 9°C
Wind Chill: 4°C
Dew Point: 6°C
Humidity: 82%
Barometer: 1006 hPa
Clouds: Mostly cloudy
Visibility: 6 miles , 10 km
Cloud details: Mostly cloudy 853 m
Mostly cloudy 1128 m
2018/09/22 06:50 EGQS 220650Z 26020KT 9999 BKN028 BKN037 09/06 Q1006 BLU
EGPF - Glasgow Airport, United Kingdom
Distance from station: SE 121mi, 195km
Updated: 22/09/2018 08:20
Clear
Clear
 Wind from WSW
Wind: WSW 13 mph , 20 km/h
Temperature: 9°C
Wind Chill: 6°C
Dew Point: 5°C
Humidity: 76%
Barometer: 1012 hPa
Clouds: Clear
Visibility: 6 miles , 10 km
2018/09/22 07:20 EGPF 220720Z AUTO 25011KT 9999 NCD 09/05 Q1012
 
EGEC - Campbeltown, United Kingdom
Distance from station: SSE 129mi, 207km
Updated: 21/09/2018 17:20
NOT Current
Partly cloudy
Partly cloudy
 Wind from WNW
Wind: WNW 23 mph , 37 km/h
Temperature: 12°C
Dew Point: 8°C
Humidity: 77%
Barometer: 1007 hPa
Clouds: Partly cloudy
Visibility: 6 miles , 10 km
Cloud details: Few Clouds 457 m
Partly cloudy 853 m
2018/09/21 16:20 EGEC 211620Z 29020KT 9999 FEW015CB SCT028 12/08 Q1007
EGPN - Dundee/Riverside, United Kingdom
Distance from station: ESE 137mi, 221km
Updated: 21/09/2018 21:50
NOT Current
Clear
Clear
 Wind from W
Wind: W 20 mph , 31 km/h
Temperature: 10°C
Wind Chill: 7°C
Dew Point: 7°C
Humidity: 82%
Barometer: 1005 hPa
Summary: Clear
Visibility: greater than 7 miles , 10 km
2018/09/21 20:50 EGPN 212050Z 26017KT CAVOK 10/07 Q1005
 
EGPK - Prestwick(Civ/Na, United Kingdom
Distance from station: SSE 139mi, 224km
Updated: 22/09/2018 08:20
Partly cloudy
Partly cloudy
 Wind from W
Wind: W 12 mph , 19 km/h
Temperature: 10°C
Wind Chill: 7°C
Dew Point: 5°C
Humidity: 71%
Barometer: 1014 hPa
Clouds: Partly cloudy
Visibility: 6 miles , 10 km
Cloud details: Partly cloudy 823 m
2018/09/22 07:20 EGPK 220720Z 26010KT 9999 SCT027 10/05 Q1014
EGQL - Leuchars Raf, United Kingdom
Distance from station: ESE 145mi, 233km
Updated: 22/09/2018 07:50
Clear
Clear
 Wind from W
Wind: W 16 mph , 26 km/h
Temperature: 7°C
Wind Chill: 3°C
Dew Point: 5°C
Humidity: 87%
Barometer: 1009 hPa
Summary: Clear
Visibility: greater than 7 miles , 10 km
2018/09/22 06:50 EGQL 220650Z 26014KT CAVOK 07/05 Q1009 BLU
 
EGPH - Edinburgh Airpor, United Kingdom
Distance from station: SE 145mi, 234km
Updated: 22/09/2018 07:50
Clear
Clear
 Wind from WSW
Wind: WSW 13 mph , 20 km/h
Temperature: 8°C
Wind Chill: 4°C
Dew Point: 5°C
Humidity: 82%
Barometer: 1011 hPa
Summary: Clear
Visibility: greater than 7 miles , 10 km
2018/09/22 06:50 EGPH 220650Z 25011KT CAVOK 08/05 Q1011
EGPC - Wick, United Kingdom
Distance from station: NE 146mi, 234km
Updated: 22/09/2018 08:20
Few Clouds
Few Clouds
 Wind from NW
Wind: NW 23 mph , 37 km/h
Temperature: 9°C
Wind Chill: 4°C
Dew Point: 7°C
Humidity: 87%
Barometer: 1003 hPa
Clouds: Few Clouds
Visibility: 6 miles , 10 km
Cloud details: Few Clouds 671 m
2018/09/22 07:20 EGPC 220720Z AUTO 31020KT 9999 FEW022/// 09/07 Q1003

-

free counters
QR Code Twitter Scottish Weather Network UK Weather Network
Argyll House B & B

Argyll House B & B is situated in North West Skye and is the perfect base to see all that the Isle of Skye has to offer.
We are now full for 2018 - Bookings been taken for 2019.